createdAt,value
2023-03-26T00:01:00.864Z,98898.78
2023-03-26T00:03:03.098Z,98896.16
2023-03-26T00:05:05.330Z,98906.22
2023-03-26T00:07:06.793Z,98898.53
2023-03-26T00:09:13.162Z,98903.59
2023-03-26T00:11:17.178Z,98899.91
2023-03-26T00:13:18.565Z,98904.97
2023-03-26T00:15:19.994Z,98903.50
2023-03-26T00:17:21.583Z,98901.91
2023-03-26T00:19:22.968Z,98902.50
2023-03-26T00:21:27.640Z,98904.53
2023-03-26T00:23:30.252Z,98901.69
2023-03-26T00:25:34.829Z,98906.13
2023-03-26T00:27:36.366Z,98899.19
2023-03-26T00:29:39.832Z,98901.03
2023-03-26T00:31:46.204Z,98894.75
2023-03-26T00:33:48.055Z,98896.34
2023-03-26T00:35:58.611Z,98894.75
2023-03-26T00:38:01.097Z,98889.28
2023-03-26T00:40:06.985Z,98895.09
2023-03-26T00:42:08.377Z,98894.31
2023-03-26T00:44:10.472Z,98898.53
2023-03-26T00:46:12.141Z,98888.25
2023-03-26T00:48:14.457Z,98891.66
2023-03-26T00:50:16.224Z,98890.44
2023-03-26T00:52:21.026Z,98887.59
2023-03-26T00:54:22.452Z,98878.47
2023-03-26T00:56:24.178Z,98885.91
2023-03-26T00:58:26.976Z,98878.84
2023-03-26T01:00:35.454Z,98880.44
2023-03-26T01:02:36.983Z,98880.22
2023-03-26T01:04:38.622Z,98870.28
2023-03-26T01:06:42.457Z,98868.69
2023-03-26T01:08:48.592Z,98864.19
2023-03-26T01:10:53.648Z,98858.94
2023-03-26T01:12:55.023Z,98862.03
2023-03-26T01:15:00.670Z,98858.38
2023-03-26T01:17:07.884Z,98858.38
2023-03-26T01:19:29.272Z,98859.19
2023-03-26T01:21:30.676Z,98854.72
2023-03-26T01:23:40.465Z,98851.88
2023-03-26T01:25:49.378Z,98847.06
2023-03-26T01:27:55.796Z,98849.13
2023-03-26T01:30:17.386Z,98848.06
2023-03-26T01:32:27.784Z,98842.03
2023-03-26T01:34:46.996Z,98844.44
2023-03-26T01:37:02.558Z,98836.34
2023-03-26T01:39:30.821Z,98842.81
2023-03-26T01:41:39.795Z,98836.53
2023-03-26T01:43:54.144Z,98828.09
2023-03-26T01:45:59.883Z,98836.78
2023-03-26T01:48:02.102Z,98837.34
2023-03-26T01:50:03.749Z,98823.41
2023-03-26T01:52:34.516Z,98835.28
2023-03-26T01:54:37.118Z,98823.19
2023-03-26T01:56:50.781Z,98827.19
2023-03-26T01:59:06.247Z,98827.53
2023-03-26T02:01:36.591Z,98826.75
2023-03-26T02:03:51.526Z,98826.06
2023-03-26T02:06:22.689Z,98816.00
2023-03-26T02:08:35.441Z,98821.84
2023-03-26T02:10:41.449Z,98816.13
2023-03-26T02:12:44.576Z,98810.31
2023-03-26T02:14:46.337Z,98802.41
2023-03-26T02:16:47.880Z,98796.00
2023-03-26T02:18:55.517Z,98802.06
2023-03-26T02:20:56.889Z,98795.78
2023-03-26T02:22:58.598Z,98800.22
2023-03-26T02:25:00.008Z,98791.75
2023-03-26T02:27:02.166Z,98790.16
2023-03-26T02:29:03.790Z,98788.09
2023-03-26T02:31:06.364Z,98789.72
2023-03-26T02:33:07.810Z,98787.75
2023-03-26T02:35:10.102Z,98769.13
2023-03-26T02:37:11.522Z,98776.44
2023-03-26T02:39:14.185Z,98774.47
2023-03-26T02:41:15.734Z,98767.81
2023-03-26T02:43:17.182Z,98771.13
2023-03-26T02:45:18.592Z,98764.28
2023-03-26T02:47:20.152Z,98766.09
2023-03-26T02:49:21.853Z,98761.75
2023-03-26T02:51:23.310Z,98765.59
2023-03-26T02:53:29.821Z,98755.53
2023-03-26T02:55:31.296Z,98758.00
2023-03-26T02:57:32.793Z,98760.63
2023-03-26T02:59:34.188Z,98749.72
2023-03-26T03:01:35.704Z,98751.09
2023-03-26T03:03:37.790Z,98749.25
2023-03-26T03:05:43.122Z,98756.09
2023-03-26T03:07:46.334Z,98750.63
2023-03-26T03:09:50.580Z,98752.59
2023-03-26T03:11:52.641Z,98753.06
2023-03-26T03:13:54.389Z,98748.97
2023-03-26T03:15:56.346Z,98744.06
2023-03-26T03:17:58.011Z,98745.44
2023-03-26T03:19:59.501Z,98743.72
2023-03-26T03:22:00.970Z,98733.22
2023-03-26T03:24:02.421Z,98733.00
2023-03-26T03:26:04.015Z,98721.53
2023-03-26T03:28:05.960Z,98725.66
2023-03-26T03:30:08.901Z,98727.34
2023-03-26T03:32:10.277Z,98718.38
2023-03-26T03:34:11.666Z,98718.25
2023-03-26T03:36:19.923Z,98716.06
2023-03-26T03:38:22.495Z,98705.09
2023-03-26T03:40:24.094Z,98709.16
2023-03-26T03:42:27.281Z,98706.63
2023-03-26T03:44:28.718Z,98703.41
2023-03-26T03:46:30.261Z,98705.69
2023-03-26T03:48:31.681Z,98706.13
2023-03-26T03:50:35.653Z,98704.16
2023-03-26T03:52:37.406Z,98706.06
2023-03-26T03:54:38.783Z,98700.44
2023-03-26T03:56:40.259Z,98706.13
2023-03-26T03:58:42.186Z,98704.97
2023-03-26T04:00:44.807Z,98708.47
2023-03-26T04:02:46.384Z,98700.00
2023-03-26T04:04:50.235Z,98696.44
2023-03-26T04:06:52.642Z,98694.72
2023-03-26T04:08:53.987Z,98700.38
2023-03-26T04:10:55.617Z,98694.53
2023-03-26T04:12:57.065Z,98687.56
2023-03-26T04:14:58.938Z,98695.06
2023-03-26T04:17:00.542Z,98686.81
2023-03-26T04:19:03.834Z,98686.47
2023-03-26T04:21:07.298Z,98682.78
2023-03-26T04:23:13.934Z,98679.41
2023-03-26T04:25:15.519Z,98671.31
2023-03-26T04:27:20.346Z,98671.53
2023-03-26T04:29:25.602Z,98658.66
2023-03-26T04:31:30.980Z,98667.97
2023-03-26T04:33:34.615Z,98668.97
2023-03-26T04:35:36.158Z,98662.13
2023-03-26T04:37:40.703Z,98657.47
2023-03-26T04:39:42.113Z,98648.16
2023-03-26T04:41:43.524Z,98651.78
2023-03-26T04:43:50.429Z,98644.88
2023-03-26T04:45:53.293Z,98644.25
2023-03-26T04:47:55.464Z,98641.19
2023-03-26T04:49:56.979Z,98630.25
2023-03-26T04:51:58.466Z,98632.09
2023-03-26T04:54:00.857Z,98626.84
2023-03-26T04:56:32.890Z,98628.66
2023-03-26T04:58:35.255Z,98625.22
2023-03-26T05:00:36.684Z,98621.59
2023-03-26T05:02:39.827Z,98617.34
2023-03-26T05:04:43.696Z,98615.53
2023-03-26T05:06:45.338Z,98610.88
2023-03-26T05:08:46.720Z,98609.84
2023-03-26T05:10:48.126Z,98609.59
2023-03-26T05:12:49.797Z,98617.28
2023-03-26T05:14:51.167Z,98607.34
2023-03-26T05:16:55.785Z,98604.53
2023-03-26T05:18:57.419Z,98605.69
2023-03-26T05:20:58.955Z,98601.25
2023-03-26T05:23:00.409Z,98597.38
2023-03-26T05:25:01.871Z,98596.13
2023-03-26T05:27:03.285Z,98601.16
2023-03-26T05:29:05.146Z,98593.84
2023-03-26T05:31:08.094Z,98587.38
2023-03-26T05:33:09.524Z,98586.56
2023-03-26T05:35:11.606Z,98584.50
2023-03-26T05:37:13.723Z,98582.47
2023-03-26T05:39:15.170Z,98578.59
2023-03-26T05:41:16.936Z,98577.34
2023-03-26T05:43:18.308Z,98574.50
2023-03-26T05:45:22.525Z,98570.63
2023-03-26T05:47:23.944Z,98567.78
2023-03-26T05:49:25.502Z,98574.19
2023-03-26T05:51:26.930Z,98563.25
2023-03-26T05:53:28.544Z,98566.44
2023-03-26T05:55:33.313Z,98558.91
2023-03-26T05:57:35.529Z,98559.25
2023-03-26T05:59:37.001Z,98548.56
2023-03-26T06:01:38.520Z,98546.50
2023-03-26T06:03:40.399Z,98545.00
2023-03-26T06:05:42.996Z,98543.78
2023-03-26T06:07:44.358Z,98543.69
2023-03-26T06:09:46.359Z,98535.81
2023-03-26T06:11:47.741Z,98532.47
2023-03-26T06:13:49.133Z,98531.25
2023-03-26T06:15:50.804Z,98529.97
2023-03-26T06:17:52.206Z,98532.16
2023-03-26T06:19:53.599Z,98528.03
2023-03-26T06:21:55.102Z,98526.78
2023-03-26T06:23:56.592Z,98521.88
2023-03-26T06:25:58.611Z,98519.59
2023-03-26T06:28:00.208Z,98514.91
2023-03-26T06:30:01.624Z,98512.41
2023-03-26T06:32:12.701Z,98511.16
2023-03-26T06:34:21.285Z,98509.41
2023-03-26T06:36:22.695Z,98506.91
2023-03-26T06:38:24.265Z,98500.38
2023-03-26T06:40:25.920Z,98509.06
2023-03-26T06:43:07.500Z,98504.97
2023-03-26T06:44:48.688Z,98505.31
2023-03-26T06:46:50.195Z,98510.09
2023-03-26T06:48:52.053Z,98519.59
2023-03-26T06:50:53.677Z,98512.50
2023-03-26T06:52:56.103Z,98516.16
2023-03-26T06:54:57.483Z,98508.50
2023-03-26T06:56:59.847Z,98511.91
2023-03-26T06:59:01.366Z,98516.03
2023-03-26T07:01:02.936Z,98512.38
2023-03-26T07:03:05.108Z,98508.47
2023-03-26T07:05:06.810Z,98509.41
2023-03-26T07:07:08.425Z,98499.78
2023-03-26T07:09:09.821Z,98502.53
2023-03-26T07:11:11.246Z,98506.16
2023-03-26T07:13:12.703Z,98497.00
2023-03-26T07:15:14.202Z,98499.41
2023-03-26T07:17:15.691Z,98503.88
2023-03-26T07:19:17.452Z,98492.34
2023-03-26T07:21:19.863Z,98496.31
2023-03-26T07:23:21.544Z,98490.38
2023-03-26T07:25:23.205Z,98494.69
2023-03-26T07:27:31.612Z,98479.59
2023-03-26T07:29:57.610Z,98485.50
2023-03-26T07:32:25.271Z,98478.75
2023-03-26T07:34:56.105Z,98481.97
2023-03-26T07:37:04.641Z,98483.09
2023-03-26T07:39:14.894Z,98483.44
2023-03-26T07:41:37.346Z,98477.69
2023-03-26T07:44:04.853Z,98477.75
2023-03-26T07:46:11.657Z,98469.41
2023-03-26T07:48:21.894Z,98467.88
2023-03-26T07:50:24.856Z,98464.22
2023-03-26T07:52:27.230Z,98464.56
2023-03-26T07:54:28.914Z,98463.53
2023-03-26T07:56:49.217Z,98459.38
2023-03-26T07:58:53.434Z,98458.38
2023-03-26T08:01:03.457Z,98451.81
2023-03-26T08:03:27.711Z,98455.56
2023-03-26T08:05:37.178Z,98448.22
2023-03-26T08:08:13.656Z,98450.84
2023-03-26T08:10:43.047Z,98441.34
2023-03-26T08:13:11.532Z,98440.66
2023-03-26T08:15:25.679Z,98434.13
2023-03-26T08:17:44.875Z,98431.81
2023-03-26T08:19:57.918Z,98443.41
2023-03-26T08:22:06.910Z,98437.88
2023-03-26T08:24:18.168Z,98436.31
2023-03-26T08:26:49.326Z,98433.09
2023-03-26T08:29:27.342Z,98431.41
2023-03-26T08:31:38.926Z,98428.84
2023-03-26T08:33:40.758Z,98426.69
2023-03-26T08:35:42.725Z,98424.03
2023-03-26T08:37:45.271Z,98422.78
2023-03-26T08:39:46.706Z,98425.19
2023-03-26T08:42:12.787Z,98420.28
2023-03-26T08:44:26.093Z,98418.09
2023-03-26T08:46:34.528Z,98421.16
2023-03-26T08:49:09.778Z,98418.81
2023-03-26T08:51:30.915Z,98414.69
2023-03-26T08:53:57.065Z,98417.63
2023-03-26T08:56:16.877Z,98420.00
2023-03-26T08:58:30.399Z,98410.41
2023-03-26T09:00:37.826Z,98406.53
2023-03-26T09:03:17.802Z,98415.06
2023-03-26T09:05:37.688Z,98408.81
2023-03-26T09:08:04.647Z,98409.28
2023-03-26T09:10:43.648Z,98408.81
2023-03-26T09:13:06.422Z,98402.56
2023-03-26T09:15:28.991Z,98401.22
2023-03-26T09:17:56.620Z,98404.38
2023-03-26T09:20:25.616Z,98399.28
2023-03-26T09:23:15.342Z,98395.84
2023-03-26T09:25:53.128Z,98404.84
2023-03-26T09:28:00.479Z,98395.88
2023-03-26T09:30:39.388Z,98401.97
2023-03-26T09:33:18.492Z,98401.00
2023-03-26T09:35:38.123Z,98397.63
2023-03-26T09:37:57.069Z,98401.84
2023-03-26T09:40:17.363Z,98387.56
2023-03-26T09:42:44.918Z,98389.97
2023-03-26T09:45:13.705Z,98390.28
2023-03-26T09:47:40.736Z,98391.84
2023-03-26T09:49:49.142Z,98386.34
2023-03-26T09:51:59.549Z,98389.28
2023-03-26T09:54:40.670Z,98386.53
2023-03-26T09:56:52.797Z,98378.81
2023-03-26T09:59:26.081Z,98384.22
2023-03-26T10:01:58.487Z,98388.53
2023-03-26T10:04:15.010Z,98380.19
2023-03-26T10:06:30.788Z,98377.94
2023-03-26T10:08:34.930Z,98379.22
2023-03-26T10:10:58.981Z,98378.78
2023-03-26T10:13:14.919Z,98377.81
2023-03-26T10:15:32.460Z,98378.09
2023-03-26T10:17:50.864Z,98380.25
2023-03-26T10:20:09.623Z,98375.47
2023-03-26T10:22:48.656Z,98373.88
2023-03-26T10:25:08.989Z,98368.41
2023-03-26T10:27:48.120Z,98365.94
2023-03-26T10:30:04.708Z,98372.22
2023-03-26T10:32:46.628Z,98370.41
2023-03-26T10:34:57.811Z,98362.59
2023-03-26T10:37:19.399Z,98364.44
2023-03-26T10:39:51.235Z,98366.22
2023-03-26T10:42:15.388Z,98365.78
2023-03-26T10:44:22.838Z,98360.78
2023-03-26T10:46:58.549Z,98359.25
2023-03-26T10:49:37.620Z,98355.81
2023-03-26T10:51:53.339Z,98362.91
2023-03-26T10:54:11.178Z,98365.06
2023-03-26T10:56:38.877Z,98364.09
2023-03-26T10:58:48.462Z,98358.31
2023-03-26T11:01:06.378Z,98361.63
2023-03-26T11:03:13.371Z,98350.81
2023-03-26T11:05:26.468Z,98356.59
2023-03-26T11:07:41.861Z,98351.88
2023-03-26T11:10:16.631Z,98351.63
2023-03-26T11:12:39.784Z,98348.19
2023-03-26T11:14:56.605Z,98346.06
2023-03-26T11:17:40.842Z,98349.50
2023-03-26T11:19:51.520Z,98349.03
2023-03-26T11:22:08.882Z,98351.88
2023-03-26T11:24:13.406Z,98355.19
2023-03-26T11:26:34.563Z,98354.50
2023-03-26T11:29:31.896Z,98354.28
2023-03-26T11:31:38.974Z,98349.91
2023-03-26T11:33:45.964Z,98351.69
2023-03-26T11:35:51.666Z,98352.97
2023-03-26T11:37:59.227Z,98357.66
2023-03-26T11:40:06.388Z,98349.53
2023-03-26T11:42:14.012Z,98345.25
2023-03-26T11:44:28.186Z,98347.72
2023-03-26T11:46:33.195Z,98347.22
2023-03-26T11:48:46.149Z,98345.06
2023-03-26T11:50:51.769Z,98336.69
2023-03-26T11:52:58.980Z,98341.06
2023-03-26T11:55:00.404Z,98342.03
2023-03-26T11:57:08.316Z,98342.34
2023-03-26T11:59:23.649Z,98328.75
2023-03-26T12:01:31.760Z,98329.25
2023-03-26T12:03:33.756Z,98331.66
2023-03-26T12:05:48.508Z,98328.63
2023-03-26T12:07:53.785Z,98326.28
2023-03-26T12:10:18.179Z,98328.00
2023-03-26T12:12:24.709Z,98328.97
2023-03-26T12:14:28.343Z,98323.19
2023-03-26T12:16:30.483Z,98318.78
2023-03-26T12:18:32.379Z,98314.94
2023-03-26T12:20:36.632Z,98321.78
2023-03-26T12:22:43.372Z,98320.50
2023-03-26T12:24:45.870Z,98317.41
2023-03-26T12:26:48.934Z,98311.91
2023-03-26T12:28:51.131Z,98317.69
2023-03-26T12:31:00.766Z,98311.63
2023-03-26T12:33:05.818Z,98308.00
2023-03-26T12:35:14.113Z,98318.38
2023-03-26T12:37:35.489Z,98312.13
2023-03-26T12:40:09.489Z,98312.63
2023-03-26T12:43:40.319Z,98314.59
2023-03-26T12:44:59.270Z,98316.31
2023-03-26T12:47:57.603Z,98309.38
2023-03-26T12:49:37.820Z,98307.09
2023-03-26T12:51:52.364Z,98311.31
2023-03-26T12:54:23.729Z,98310.88
2023-03-26T12:56:49.808Z,98304.88
2023-03-26T12:59:36.439Z,98303.78
2023-03-26T13:01:46.549Z,98303.78
2023-03-26T13:04:13.512Z,98306.78
2023-03-26T13:06:48.467Z,98301.50
2023-03-26T13:09:11.842Z,98303.34
2023-03-26T13:11:19.370Z,98297.53
2023-03-26T13:13:45.652Z,98297.88
2023-03-26T13:15:56.873Z,98293.66
2023-03-26T13:18:23.225Z,98300.75
2023-03-26T13:20:27.503Z,98299.31
2023-03-26T13:22:59.620Z,98295.09
2023-03-26T13:25:07.437Z,98296.50
2023-03-26T13:27:33.798Z,98296.22
2023-03-26T13:29:56.964Z,98293.78
2023-03-26T13:32:12.697Z,98290.59
2023-03-26T13:34:19.429Z,98293.03
2023-03-26T13:36:29.710Z,98291.94
2023-03-26T13:38:59.083Z,98291.97
2023-03-26T13:41:13.173Z,98294.66
2023-03-26T13:43:28.243Z,98292.59
2023-03-26T13:45:50.845Z,98287.28
2023-03-26T13:47:57.110Z,98285.97
2023-03-26T13:50:20.943Z,98286.97
2023-03-26T13:52:33.134Z,98288.38
2023-03-26T13:54:44.124Z,98289.44
2023-03-26T13:57:15.009Z,98292.81
2023-03-26T13:59:31.772Z,98293.00
2023-03-26T14:01:41.075Z,98296.16
2023-03-26T14:04:07.626Z,98299.03
2023-03-26T14:06:48.888Z,98293.16
2023-03-26T14:08:58.144Z,98299.63
2023-03-26T14:11:22.757Z,98302.53
2023-03-26T14:13:49.568Z,98302.66
2023-03-26T14:15:58.926Z,98311.22
2023-03-26T14:18:25.813Z,98306.75
2023-03-26T14:21:02.937Z,98302.91
2023-03-26T14:23:16.601Z,98310.22
2023-03-26T14:25:49.053Z,98305.53
2023-03-26T14:28:02.001Z,98306.09
2023-03-26T14:30:41.249Z,98309.06
2023-03-26T14:33:27.197Z,98312.41
2023-03-26T14:35:38.704Z,98310.38
2023-03-26T14:37:47.912Z,98314.94
2023-03-26T14:39:55.346Z,98313.34
2023-03-26T14:42:02.104Z,98318.28
2023-03-26T14:44:47.997Z,98309.78
2023-03-26T14:47:16.664Z,98320.84
2023-03-26T14:49:43.616Z,98326.47
2023-03-26T14:51:58.864Z,98329.28
2023-03-26T14:54:06.833Z,98328.13
2023-03-26T14:56:26.229Z,98327.25
2023-03-26T14:58:55.787Z,98330.91
2023-03-26T15:01:22.424Z,98335.78
2023-03-26T15:04:08.534Z,98340.19
2023-03-26T15:06:25.163Z,98340.94
2023-03-26T15:08:34.350Z,98345.63
2023-03-26T15:11:13.337Z,98345.00
2023-03-26T15:13:36.553Z,98350.34
2023-03-26T15:16:05.100Z,98353.00
2023-03-26T15:18:27.726Z,98354.19
2023-03-26T15:20:35.058Z,98357.75
2023-03-26T15:23:07.514Z,98361.03
2023-03-26T15:25:14.709Z,98361.53
2023-03-26T15:27:42.173Z,98368.78
2023-03-26T15:29:49.410Z,98375.09
2023-03-26T15:32:12.459Z,98369.59
2023-03-26T15:34:58.295Z,98377.56
2023-03-26T15:37:38.097Z,98377.56
2023-03-26T15:40:08.065Z,98383.28
2023-03-26T15:42:30.891Z,98394.16
2023-03-26T15:44:50.957Z,98392.91
2023-03-26T15:47:40.318Z,98391.56
2023-03-26T15:49:49.114Z,98406.56
2023-03-26T15:52:22.030Z,98410.94
2023-03-26T15:54:35.566Z,98411.16
2023-03-26T15:56:55.221Z,98408.13
2023-03-26T15:59:23.417Z,98419.38
2023-03-26T16:01:50.134Z,98420.88
2023-03-26T16:04:09.021Z,98424.63
2023-03-26T16:06:35.806Z,98428.47
2023-03-26T16:09:17.128Z,98428.50
2023-03-26T16:11:56.020Z,98433.06
2023-03-26T16:14:23.204Z,98437.63
2023-03-26T16:16:50.599Z,98435.59
2023-03-26T16:18:58.399Z,98443.50
2023-03-26T16:21:31.503Z,98448.91
2023-03-26T16:24:12.523Z,98462.13
2023-03-26T16:26:22.922Z,98465.81
2023-03-26T16:28:29.230Z,98460.75
2023-03-26T16:30:32.900Z,98456.53
2023-03-26T16:32:40.353Z,98466.03
2023-03-26T16:35:20.620Z,98464.38
2023-03-26T16:37:45.623Z,98471.81
2023-03-26T16:39:47.255Z,98473.31
2023-03-26T16:41:50.042Z,98472.63
2023-03-26T16:43:56.058Z,98475.72
2023-03-26T16:46:08.376Z,98484.31
2023-03-26T16:48:34.458Z,98487.63
2023-03-26T16:50:56.645Z,98490.75
2023-03-26T16:53:13.581Z,98502.19
2023-03-26T16:55:34.517Z,98502.19
2023-03-26T16:58:03.452Z,98512.59
2023-03-26T17:00:16.294Z,98505.75
2023-03-26T17:02:32.047Z,98521.19
2023-03-26T17:04:35.446Z,98523.72
2023-03-26T17:07:08.829Z,98524.16
2023-03-26T17:09:51.665Z,98531.59
2023-03-26T17:12:11.648Z,98547.38
2023-03-26T17:14:28.881Z,98554.13
2023-03-26T17:16:37.970Z,98557.00
2023-03-26T17:19:07.924Z,98559.72
2023-03-26T17:21:13.711Z,98572.06
2023-03-26T17:23:39.011Z,98573.53
2023-03-26T17:26:09.036Z,98578.34
2023-03-26T17:28:22.332Z,98585.31
2023-03-26T17:30:41.047Z,98591.38
2023-03-26T17:32:58.564Z,98584.06
2023-03-26T17:35:03.520Z,98591.47
2023-03-26T17:37:10.422Z,98602.00
2023-03-26T17:39:38.646Z,98595.72
2023-03-26T17:41:54.865Z,98613.66
2023-03-26T17:43:56.850Z,98610.09
2023-03-26T17:46:03.681Z,98613.53
2023-03-26T17:48:16.700Z,98619.22
2023-03-26T17:50:26.978Z,98631.66
2023-03-26T17:52:33.242Z,98632.47
2023-03-26T17:54:41.134Z,98634.63
2023-03-26T17:56:43.042Z,98639.88
2023-03-26T17:58:49.139Z,98642.94
2023-03-26T18:00:56.772Z,98644.31
2023-03-26T18:03:31.108Z,98653.69
2023-03-26T18:05:34.300Z,98657.56
2023-03-26T18:07:57.905Z,98662.69
2023-03-26T18:10:33.082Z,98664.97
2023-03-26T18:13:05.347Z,98666.78
2023-03-26T18:15:32.311Z,98675.53
2023-03-26T18:17:41.425Z,98680.66
2023-03-26T18:19:48.955Z,98691.28
2023-03-26T18:21:52.873Z,98697.78
2023-03-26T18:24:00.641Z,98692.47
2023-03-26T18:26:32.553Z,98704.16
2023-03-26T18:28:43.593Z,98697.28
2023-03-26T18:30:48.553Z,98707.00
2023-03-26T18:33:05.037Z,98707.75
2023-03-26T18:35:21.290Z,98720.16
2023-03-26T18:37:31.717Z,98725.97
2023-03-26T18:39:33.141Z,98731.22
2023-03-26T18:41:41.603Z,98734.72
2023-03-26T18:43:44.350Z,98736.19
2023-03-26T18:45:49.836Z,98743.63
2023-03-26T18:48:19.058Z,98749.75
2023-03-26T18:50:27.427Z,98753.97
2023-03-26T18:52:31.415Z,98766.50
2023-03-26T18:54:35.984Z,98763.06
2023-03-26T18:56:39.643Z,98762.78
2023-03-26T18:58:41.706Z,98776.06
2023-03-26T19:00:44.155Z,98771.47
2023-03-26T19:02:49.649Z,98783.34
2023-03-26T19:04:54.241Z,98779.09
2023-03-26T19:06:56.852Z,98787.84
2023-03-26T19:08:58.804Z,98781.34
2023-03-26T19:11:04.754Z,98788.53
2023-03-26T19:13:14.013Z,98794.53
2023-03-26T19:15:19.960Z,98802.84
2023-03-26T19:17:22.980Z,98801.59
2023-03-26T19:19:32.781Z,98802.03
2023-03-26T19:21:35.749Z,98812.97
2023-03-26T19:23:41.017Z,98814.16
2023-03-26T19:25:48.163Z,98816.41
2023-03-26T19:27:50.654Z,98823.66
2023-03-26T19:29:53.049Z,98824.91
2023-03-26T19:32:05.519Z,98830.75
2023-03-26T19:34:17.422Z,98828.13
2023-03-26T19:36:34.478Z,98841.25
2023-03-26T19:38:51.983Z,98844.06
2023-03-26T19:40:58.107Z,98843.50
2023-03-26T19:42:59.869Z,98845.09
2023-03-26T19:45:04.162Z,98846.97
2023-03-26T19:47:26.786Z,98852.22
2023-03-26T19:49:47.616Z,98864.31
2023-03-26T19:51:53.129Z,98856.91
2023-03-26T19:53:58.449Z,98865.00
2023-03-26T19:56:09.745Z,98861.56
2023-03-26T19:58:11.168Z,98876.50
2023-03-26T20:00:14.206Z,98873.88
2023-03-26T20:02:15.827Z,98881.94
2023-03-26T20:04:17.280Z,98878.84
2023-03-26T20:06:30.721Z,98880.84
2023-03-26T20:08:40.607Z,98890.94
2023-03-26T20:10:42.913Z,98900.59
2023-03-26T20:12:44.661Z,98899.41
2023-03-26T20:14:46.432Z,98907.28
2023-03-26T20:16:47.883Z,98910.72
2023-03-26T20:18:50.710Z,98916.94
2023-03-26T20:20:53.810Z,98922.22
2023-03-26T20:22:55.306Z,98924.84
2023-03-26T20:24:56.841Z,98926.31
2023-03-26T20:26:58.219Z,98935.16
2023-03-26T20:28:59.946Z,98944.03
2023-03-26T20:31:01.402Z,98945.50
2023-03-26T20:33:12.541Z,98941.69
2023-03-26T20:35:16.233Z,98947.75
2023-03-26T20:37:17.853Z,98953.78
2023-03-26T20:39:19.384Z,98955.00
2023-03-26T20:41:23.281Z,98961.44
2023-03-26T20:43:28.686Z,98970.31
2023-03-26T20:45:30.199Z,98974.59
2023-03-26T20:47:31.581Z,98975.78
2023-03-26T20:49:33.185Z,98985.06
2023-03-26T20:51:34.591Z,98983.63
2023-03-26T20:53:36.039Z,98990.09
2023-03-26T20:55:37.485Z,98993.72
2023-03-26T20:57:38.938Z,98994.72
2023-03-26T20:59:40.343Z,99000.56
2023-03-26T21:01:42.073Z,99006.38
2023-03-26T21:03:46.565Z,99002.34
2023-03-26T21:05:51.180Z,99001.94
2023-03-26T21:07:54.859Z,99014.81
2023-03-26T21:09:57.957Z,99020.22
2023-03-26T21:12:05.009Z,99026.06
2023-03-26T21:14:15.629Z,99022.41
2023-03-26T21:16:17.551Z,99035.47
2023-03-26T21:18:19.286Z,99037.44
2023-03-26T21:20:22.099Z,99042.25
2023-03-26T21:22:37.292Z,99051.44
2023-03-26T21:24:39.048Z,99053.78
2023-03-26T21:26:59.016Z,99063.06
2023-03-26T21:29:00.964Z,99060.63
2023-03-26T21:31:04.313Z,99072.03
2023-03-26T21:33:06.406Z,99075.84
2023-03-26T21:35:08.799Z,99079.63
2023-03-26T21:37:10.532Z,99081.00
2023-03-26T21:39:12.186Z,99085.56
2023-03-26T21:41:35.837Z,99094.63
2023-03-26T21:43:37.280Z,99097.78
2023-03-26T21:45:39.659Z,99097.75
2023-03-26T21:47:41.897Z,99099.69
2023-03-26T21:49:43.605Z,99106.91
2023-03-26T21:51:45.462Z,99105.44
2023-03-26T21:53:47.397Z,99111.44
2023-03-26T21:55:48.730Z,99113.41
2023-03-26T21:58:11.162Z,99116.78
2023-03-26T22:00:18.144Z,99124.56
2023-03-26T22:02:38.187Z,99130.53
2023-03-26T22:04:48.336Z,99133.88
2023-03-26T22:07:15.674Z,99150.16
2023-03-26T22:09:20.736Z,99153.88
2023-03-26T22:11:27.892Z,99154.50
2023-03-26T22:13:29.302Z,99164.50
2023-03-26T22:15:31.071Z,99165.16
2023-03-26T22:17:32.789Z,99171.56
2023-03-26T22:19:34.612Z,99177.97
2023-03-26T22:21:36.071Z,99179.47
2023-03-26T22:23:38.614Z,99178.88
2023-03-26T22:25:40.116Z,99184.69
2023-03-26T22:27:44.042Z,99189.31
2023-03-26T22:29:46.474Z,99173.91
2023-03-26T22:31:47.853Z,99189.56
2023-03-26T22:33:49.265Z,99182.03
2023-03-26T22:35:52.193Z,99189.03
2023-03-26T22:38:00.825Z,99189.03
2023-03-26T22:40:08.642Z,99204.53
2023-03-26T22:42:10.053Z,99213.25
2023-03-26T22:44:19.951Z,99215.03
2023-03-26T22:46:22.574Z,99211.78
2023-03-26T22:48:24.441Z,99216.53
2023-03-26T22:50:25.994Z,99219.72
2023-03-26T22:52:28.105Z,99220.25
2023-03-26T22:54:29.469Z,99231.28
2023-03-26T22:56:30.857Z,99232.47
2023-03-26T22:58:34.267Z,99231.19
2023-03-26T23:00:36.122Z,99240.53
2023-03-26T23:02:38.048Z,99244.94
2023-03-26T23:04:39.473Z,99244.75
2023-03-26T23:06:40.998Z,99257.97
2023-03-26T23:08:42.852Z,99265.81
2023-03-26T23:10:44.250Z,99266.97
2023-03-26T23:12:45.757Z,99263.19
2023-03-26T23:14:52.190Z,99269.22
2023-03-26T23:16:53.640Z,99262.38
2023-03-26T23:18:55.031Z,99270.56
2023-03-26T23:20:58.497Z,99275.13
2023-03-26T23:23:01.181Z,99276.59
2023-03-26T23:25:03.237Z,99283.75
2023-03-26T23:27:06.517Z,99281.25
2023-03-26T23:29:07.954Z,99283.22
2023-03-26T23:31:12.413Z,99289.97
2023-03-26T23:33:14.408Z,99297.94
2023-03-26T23:35:16.020Z,99306.94
2023-03-26T23:37:22.781Z,99308.91
2023-03-26T23:39:26.049Z,99318.34
2023-03-26T23:41:27.554Z,99322.13
2023-03-26T23:43:29.175Z,99326.88
2023-03-26T23:45:30.786Z,99334.03
2023-03-26T23:47:34.890Z,99335.34
2023-03-26T23:49:37.315Z,99339.13
2023-03-26T23:51:38.702Z,99339.47
2023-03-26T23:53:40.193Z,99345.31
2023-03-26T23:55:44.153Z,99346.47
2023-03-26T23:57:46.267Z,99348.31
2023-03-26T23:59:48.448Z,99346.53
